Time;durP1;ratioP1;P1;durP2;ratioP2;P2;SDS_P1;SDS_P2;PMS_P1;PMS_P2;Temp;Humidity;BMP_temperature;BMP_pressure;BME280_temperature;BME280_humidity;BME280_pressure;Samples;Min_cycle;Max_cycle;Signal;HPM_P1;HPM_P2
2021/08/28 00:02:14;;;;;;;6.50;5.63;;;;;;;;;;5033394;28;20495;-63
2021/08/28 00:04:41;;;;;;;5.47;4.97;;;;;;;;;;5033316;28;20444;-63
2021/08/28 00:07:09;;;;;;;4.20;3.90;;;;;;;;;;5032969;28;20503;-64
2021/08/28 00:09:36;;;;;;;4.90;4.40;;;;;;;;;;5033183;28;20460;-64
2021/08/28 00:12:03;;;;;;;5.00;4.50;;;;;;;;;;5033311;28;20583;-64
2021/08/28 00:14:32;;;;;;;4.70;4.40;;;;;;;;;;5033155;28;20477;-64
2021/08/28 00:16:59;;;;;;;6.60;5.20;;;;;;;;;;5033216;28;20445;-64
2021/08/28 00:19:26;;;;;;;6.33;5.17;;;;;;;;;;5033084;28;20465;-64
2021/08/28 00:21:54;;;;;;;5.53;5.03;;;;;;;;;;5033170;28;20441;-63
2021/08/28 00:24:21;;;;;;;6.77;5.83;;;;;;;;;;5035235;28;20453;-63
2021/08/28 00:26:48;;;;;;;7.50;6.40;;;;;;;;;;5037137;28;20441;-63
2021/08/28 00:29:16;;;;;;;7.17;6.47;;;;;;;;;;5036680;28;20476;-63
2021/08/28 00:31:44;;;;;;;6.87;6.03;;;;;;;;;;5037009;28;20448;-64
2021/08/28 00:34:12;;;;;;;6.43;5.83;;;;;;;;;;5036665;28;20984;-64
2021/08/28 00:36:39;;;;;;;6.30;5.80;;;;;;;;;;5037187;28;20492;-64
2021/08/28 00:39:06;;;;;;;5.80;5.30;;;;;;;;;;5036864;28;20515;-64
2021/08/28 00:41:34;;;;;;;9.03;6.70;;;;;;;;;;5036808;28;20502;-64
2021/08/28 00:44:01;;;;;;;7.20;6.10;;;;;;;;;;5036501;28;20476;-64
2021/08/28 00:46:28;;;;;;;7.23;6.43;;;;;;;;;;5036529;28;20440;-64
2021/08/28 00:48:57;;;;;;;8.63;7.70;;;;;;;;;;5036878;28;20526;-64
2021/08/28 00:54:00;;;;;;;8.70;7.80;;;;;;;;;;5171859;22;20539;-64
2021/08/28 00:56:27;;;;;;;9.70;8.33;;;;;;;;;;5017250;28;20450;-64
2021/08/28 00:58:54;;;;;;;9.20;8.30;;;;;;;;;;5017404;28;20453;-64
2021/08/28 01:01:24;;;;;;;8.97;8.17;;;;;;;;;;5017095;28;20860;-64
2021/08/28 01:03:59;;;;;;;8.90;8.10;;;;;;;;;;5016848;28;21036;-64
2021/08/28 01:06:34;;;;;;;9.93;8.93;;;;;;;;;;5018306;28;20433;-63
2021/08/28 01:09:04;;;;;;;9.23;8.33;;;;;;;;;;5016967;28;20488;-63
2021/08/28 01:11:34;;;;;;;10.60;8.77;;;;;;;;;;5016946;28;20540;-63
2021/08/28 01:14:04;;;;;;;9.70;8.80;;;;;;;;;;5016779;28;20522;-64
2021/08/28 01:16:32;;;;;;;10.13;9.13;;;;;;;;;;5017075;28;20430;-64
2021/08/28 01:18:59;;;;;;;10.57;9.47;;;;;;;;;;5016969;28;20888;-64
2021/08/28 01:21:29;;;;;;;10.07;9.07;;;;;;;;;;5016608;28;20519;-64
2021/08/28 01:23:59;;;;;;;11.27;10.17;;;;;;;;;;5016681;28;20462;-63
2021/08/28 01:26:29;;;;;;;11.30;10.10;;;;;;;;;;5016684;28;20438;-63
2021/08/28 01:28:58;;;;;;;11.37;10.20;;;;;;;;;;5016483;28;20446;-64
2021/08/28 01:31:27;;;;;;;12.40;11.10;;;;;;;;;;5016431;28;20794;-63
2021/08/28 01:33:55;;;;;;;11.80;10.60;;;;;;;;;;5016395;28;20481;-63
2021/08/28 01:36:23;;;;;;;14.73;11.40;;;;;;;;;;5015514;28;20441;-62
2021/08/28 01:38:50;;;;;;;14.50;12.03;;;;;;;;;;5016386;28;20536;-62
2021/08/28 01:41:18;;;;;;;13.10;11.70;;;;;;;;;;5015957;28;20847;-63
2021/08/28 01:43:46;;;;;;;13.70;11.77;;;;;;;;;;5015850;28;20466;-63
2021/08/28 01:46:13;;;;;;;13.07;11.77;;;;;;;;;;5016023;28;20587;-62
2021/08/28 01:48:42;;;;;;;12.83;11.53;;;;;;;;;;5016136;28;20442;-62
2021/08/28 01:51:09;;;;;;;14.00;12.23;;;;;;;;;;5016007;28;20450;-63
2021/08/28 01:53:37;;;;;;;13.80;12.50;;;;;;;;;;5015407;28;20486;-62
2021/08/28 01:56:04;;;;;;;14.53;12.77;;;;;;;;;;5015694;28;20480;-62
2021/08/28 01:58:32;;;;;;;15.23;13.73;;;;;;;;;;5015568;28;20937;-63
2021/08/28 02:00:59;;;;;;;13.87;12.00;;;;;;;;;;5015508;28;21003;-62
2021/08/28 02:03:26;;;;;;;14.67;13.07;;;;;;;;;;5015428;28;20469;-63
2021/08/28 02:06:05;;;;;;;15.07;13.47;;;;;;;;;;5015938;28;20504;-62
2021/08/28 02:08:33;;;;;;;13.40;12.10;;;;;;;;;;5015926;28;20529;-62
2021/08/28 02:11:05;;;;;;;14.33;12.83;;;;;;;;;;5015667;28;20512;-62
2021/08/28 02:13:34;;;;;;;14.60;12.73;;;;;;;;;;5015749;28;20477;-62
2021/08/28 02:16:06;;;;;;;15.03;13.40;;;;;;;;;;5015688;28;20450;-62
2021/08/28 02:18:34;;;;;;;14.83;13.43;;;;;;;;;;5015717;28;20434;-62
2021/08/28 02:21:03;;;;;;;15.30;13.70;;;;;;;;;;5015521;28;20450;-62
2021/08/28 02:23:31;;;;;;;15.40;13.83;;;;;;;;;;5015085;28;20520;-62
2021/08/28 02:26:01;;;;;;;17.07;14.27;;;;;;;;;;5015393;28;20446;-63
2021/08/28 02:28:33;;;;;;;16.80;14.10;;;;;;;;;;5014932;28;20453;-62
2021/08/28 02:31:01;;;;;;;17.67;14.67;;;;;;;;;;5015017;28;20462;-62
2021/08/28 02:33:29;;;;;;;17.43;15.83;;;;;;;;;;5015221;28;20493;-62
2021/08/28 02:35:57;;;;;;;16.33;14.63;;;;;;;;;;5015150;28;20501;-62
2021/08/28 02:38:26;;;;;;;17.53;15.47;;;;;;;;;;5015253;28;20512;-63
2021/08/28 02:40:56;;;;;;;17.30;15.70;;;;;;;;;;5015574;28;20528;-62
2021/08/28 02:43:23;;;;;;;18.80;16.80;;;;;;;;;;5015181;28;20466;-62
2021/08/28 02:45:51;;;;;;;18.17;16.37;;;;;;;;;;5014743;28;20450;-62
2021/08/28 02:48:19;;;;;;;17.13;15.43;;;;;;;;;;5014000;28;20458;-62
2021/08/28 02:50:47;;;;;;;18.23;16.33;;;;;;;;;;5015032;28;20438;-62
2021/08/28 02:53:15;;;;;;;18.33;16.43;;;;;;;;;;5014638;28;20470;-62
2021/08/28 02:55:45;;;;;;;18.60;16.60;;;;;;;;;;5014548;28;20965;-62
2021/08/28 02:58:13;;;;;;;18.80;16.70;;;;;;;;;;5014825;28;20449;-62
2021/08/28 03:00:41;;;;;;;23.40;18.00;;;;;;;;;;5014832;28;20442;-62
2021/08/28 03:03:08;;;;;;;17.77;15.90;;;;;;;;;;5014951;28;20520;-62
2021/08/28 03:05:35;;;;;;;20.50;17.10;;;;;;;;;;5014402;28;20929;-62
2021/08/28 03:08:03;;;;;;;19.90;17.57;;;;;;;;;;5014615;28;20441;-62
2021/08/28 03:10:30;;;;;;;18.23;16.30;;;;;;;;;;5014630;28;20449;-62
2021/08/28 03:12:59;;;;;;;20.83;15.60;;;;;;;;;;5014510;28;20889;-62
2021/08/28 03:15:26;;;;;;;17.97;16.20;;;;;;;;;;5014660;28;20478;-62
2021/08/28 03:17:54;;;;;;;20.50;18.43;;;;;;;;;;5014164;28;20991;-62
2021/08/28 03:20:22;;;;;;;22.00;18.27;;;;;;;;;;5014200;28;20464;-62
2021/08/28 03:22:49;;;;;;;21.30;17.20;;;;;;;;;;5013932;28;20470;-62
2021/08/28 03:25:18;;;;;;;17.13;15.33;;;;;;;;;;5014545;28;20438;-62
2021/08/28 03:27:46;;;;;;;19.70;17.17;;;;;;;;;;5014052;28;20941;-62
2021/08/28 03:30:16;;;;;;;19.87;17.50;;;;;;;;;;5014341;28;20525;-62
2021/08/28 03:32:44;;;;;;;19.40;17.07;;;;;;;;;;5013942;28;20465;-62
2021/08/28 03:35:12;;;;;;;18.30;16.30;;;;;;;;;;5014203;28;20481;-62
2021/08/28 03:37:40;;;;;;;18.60;16.70;;;;;;;;;;5014295;28;20496;-62
2021/08/28 03:40:08;;;;;;;22.50;18.07;;;;;;;;;;5014448;28;20449;-62
2021/08/28 03:42:35;;;;;;;21.50;17.13;;;;;;;;;;5014433;28;20465;-63
2021/08/28 03:45:04;;;;;;;18.30;16.33;;;;;;;;;;5014279;28;20855;-62
2021/08/28 03:47:33;;;;;;;18.40;16.50;;;;;;;;;;5013977;28;20453;-62
2021/08/28 03:50:00;;;;;;;18.43;16.37;;;;;;;;;;5013966;28;20504;-62
2021/08/28 03:52:28;;;;;;;18.00;16.20;;;;;;;;;;5014394;28;20674;-62
2021/08/28 03:54:55;;;;;;;20.13;16.97;;;;;;;;;;5013924;28;20486;-62
2021/08/28 03:57:22;;;;;;;20.73;16.33;;;;;;;;;;5013794;28;21011;-62
2021/08/28 03:59:49;;;;;;;20.70;17.57;;;;;;;;;;5013943;28;20475;-62
2021/08/28 04:02:16;;;;;;;17.70;15.90;;;;;;;;;;5014135;28;20516;-62
2021/08/28 04:04:45;;;;;;;18.90;15.97;;;;;;;;;;5013561;28;20445;-62
2021/08/28 04:08:30;;;;;;;19.47;17.17;;;;;;;;;;5091516;27;20541;-64
2021/08/28 04:10:58;;;;;;;21.20;18.13;;;;;;;;;;5091117;28;20495;-63
2021/08/28 04:13:25;;;;;;;22.93;18.60;;;;;;;;;;5090608;28;20884;-63
2021/08/28 04:15:54;;;;;;;20.70;18.60;;;;;;;;;;5090655;28;20435;-62
2021/08/28 04:18:21;;;;;;;23.00;19.10;;;;;;;;;;5090850;28;20454;-63
2021/08/28 04:20:49;;;;;;;23.90;20.47;;;;;;;;;;5091001;28;20487;-64
2021/08/28 04:23:16;;;;;;;24.40;21.10;;;;;;;;;;5091217;28;20512;-64
2021/08/28 04:25:44;;;;;;;22.93;19.17;;;;;;;;;;5091639;28;20508;-61
2021/08/28 04:28:12;;;;;;;25.80;20.87;;;;;;;;;;5092108;28;20478;-64
2021/08/28 04:30:39;;;;;;;22.77;19.47;;;;;;;;;;5091983;28;20500;-63
2021/08/28 04:33:07;;;;;;;25.57;20.87;;;;;;;;;;5091342;28;20466;-63
2021/08/28 04:35:35;;;;;;;25.50;21.00;;;;;;;;;;5091559;28;20453;-64
2021/08/28 04:38:02;;;;;;;25.87;21.27;;;;;;;;;;5091059;28;21010;-63
2021/08/28 04:40:29;;;;;;;24.10;20.60;;;;;;;;;;5091218;28;20495;-63
2021/08/28 04:42:58;;;;;;;26.93;21.50;;;;;;;;;;5091408;28;20466;-62
2021/08/28 04:45:25;;;;;;;27.00;21.03;;;;;;;;;;5091237;28;20438;-63
2021/08/28 04:47:52;;;;;;;24.20;19.70;;;;;;;;;;5090882;28;20535;-64
2021/08/28 04:50:20;;;;;;;19.73;17.60;;;;;;;;;;5090470;28;20446;-63
2021/08/28 04:52:47;;;;;;;21.70;17.33;;;;;;;;;;5090180;28;20517;-64
2021/08/28 04:55:14;;;;;;;21.30;18.53;;;;;;;;;;5090084;28;20800;-64
2021/08/28 04:57:41;;;;;;;22.57;18.90;;;;;;;;;;5089796;28;20857;-63
2021/08/28 05:00:11;;;;;;;21.43;18.40;;;;;;;;;;5090108;28;20446;-63
2021/08/28 05:02:38;;;;;;;21.70;18.90;;;;;;;;;;5090100;28;20462;-64
2021/08/28 05:05:06;;;;;;;22.23;18.10;;;;;;;;;;5089915;28;20446;-63
2021/08/28 05:07:33;;;;;;;23.53;17.80;;;;;;;;;;5090227;28;20836;-63
2021/08/28 05:10:00;;;;;;;19.87;17.60;;;;;;;;;;5089720;28;20938;-63
2021/08/28 05:12:28;;;;;;;21.03;17.13;;;;;;;;;;5089737;28;20512;-63
2021/08/28 05:14:55;;;;;;;18.83;16.27;;;;;;;;;;5089908;28;20446;-63
2021/08/28 05:17:24;;;;;;;19.33;16.60;;;;;;;;;;5089929;28;20849;-63
2021/08/28 05:19:51;;;;;;;17.73;15.03;;;;;;;;;;5077162;28;20446;-63
2021/08/28 05:22:18;;;;;;;17.23;15.13;;;;;;;;;;5076958;28;20467;-63
2021/08/28 05:24:45;;;;;;;18.97;14.90;;;;;;;;;;5076695;28;20443;-64
2021/08/28 05:27:13;;;;;;;17.50;14.73;;;;;;;;;;5076183;28;20985;-63
2021/08/28 05:29:40;;;;;;;17.40;15.00;;;;;;;;;;5076698;28;20485;-63
2021/08/28 05:32:08;;;;;;;19.53;15.00;;;;;;;;;;5076038;28;20455;-63
2021/08/28 05:34:37;;;;;;;18.60;14.80;;;;;;;;;;5076014;28;20926;-64
2021/08/28 05:37:04;;;;;;;18.17;15.27;;;;;;;;;;5076225;28;20497;-63
2021/08/28 05:39:31;;;;;;;17.13;15.33;;;;;;;;;;5076177;28;20442;-63
2021/08/28 05:41:59;;;;;;;19.20;16.10;;;;;;;;;;5076033;28;20447;-64
2021/08/28 05:44:26;;;;;;;15.90;14.20;;;;;;;;;;5075596;28;21029;-63
2021/08/28 05:46:53;;;;;;;17.67;14.10;;;;;;;;;;5075811;28;20475;-63
2021/08/28 05:49:20;;;;;;;21.73;17.10;;;;;;;;;;5075907;28;20498;-63
2021/08/28 05:51:49;;;;;;;19.47;16.70;;;;;;;;;;5075381;28;20946;-63
2021/08/28 05:54:16;;;;;;;18.67;16.67;;;;;;;;;;5076441;28;20463;-63
2021/08/28 05:56:43;;;;;;;19.30;16.47;;;;;;;;;;5076678;28;20493;-62
2021/08/28 05:59:11;;;;;;;16.53;14.73;;;;;;;;;;5076240;28;20443;-64
2021/08/28 06:01:38;;;;;;;17.20;15.40;;;;;;;;;;5075893;28;20516;-63
2021/08/28 06:04:05;;;;;;;14.63;13.23;;;;;;;;;;5075535;28;20529;-63
2021/08/28 06:06:32;;;;;;;16.00;14.30;;;;;;;;;;5075827;28;20459;-63
2021/08/28 06:09:01;;;;;;;17.10;15.30;;;;;;;;;;5076092;28;20513;-62
2021/08/28 06:11:28;;;;;;;17.17;15.47;;;;;;;;;;5075989;28;20450;-63
2021/08/28 06:13:55;;;;;;;15.47;13.80;;;;;;;;;;5075661;28;20512;-64
2021/08/28 06:16:23;;;;;;;19.17;15.70;;;;;;;;;;5075558;28;20439;-64
2021/08/28 06:18:50;;;;;;;18.60;16.00;;;;;;;;;;5075437;28;20501;-64
2021/08/28 06:21:19;;;;;;;16.83;14.30;;;;;;;;;;5075315;28;20451;-64
2021/08/28 06:23:46;;;;;;;16.57;14.77;;;;;;;;;;5075248;28;20467;-64
2021/08/28 06:26:15;;;;;;;17.00;15.20;;;;;;;;;;5074691;28;20947;-63
2021/08/28 06:28:42;;;;;;;15.17;13.57;;;;;;;;;;5075016;28;20471;-64
2021/08/28 06:31:09;;;;;;;13.80;12.40;;;;;;;;;;5074509;28;20906;-64
2021/08/28 06:33:36;;;;;;;13.03;11.63;;;;;;;;;;5081020;28;20517;-63
2021/08/28 06:36:04;;;;;;;17.63;13.63;;;;;;;;;;5079624;28;20508;-62
2021/08/28 06:38:32;;;;;;;12.97;11.77;;;;;;;;;;5079193;28;20443;-64
2021/08/28 06:40:59;;;;;;;13.37;12.00;;;;;;;;;;5078914;28;20450;-64
2021/08/28 06:43:28;;;;;;;12.70;11.50;;;;;;;;;;5079024;28;20524;-63
2021/08/28 06:45:55;;;;;;;15.10;13.70;;;;;;;;;;5075665;28;20439;-63
2021/08/28 06:48:22;;;;;;;15.43;13.90;;;;;;;;;;5074345;28;20543;-64
2021/08/28 06:50:49;;;;;;;14.47;13.07;;;;;;;;;;5075407;28;20447;-63
2021/08/28 06:53:17;;;;;;;14.50;13.00;;;;;;;;;;5074651;28;20517;-63
2021/08/28 06:55:45;;;;;;;13.57;12.20;;;;;;;;;;5074019;28;20451;-63
2021/08/28 06:58:12;;;;;;;13.00;11.60;;;;;;;;;;5074118;28;20447;-63
2021/08/28 07:00:40;;;;;;;11.23;10.23;;;;;;;;;;5074141;28;20450;-64
2021/08/28 07:03:08;;;;;;;12.97;11.77;;;;;;;;;;5073817;28;20969;-63
2021/08/28 07:05:35;;;;;;;11.33;10.23;;;;;;;;;;5110776;22;20540;-56
2021/08/28 07:08:02;;;;;;;10.70;9.60;;;;;;;;;;5034215;28;20465;-57
2021/08/28 07:10:29;;;;;;;10.83;9.73;;;;;;;;;;5033860;28;20865;-56
2021/08/28 07:12:57;;;;;;;11.47;10.37;;;;;;;;;;5033708;28;20499;-56
2021/08/28 07:15:24;;;;;;;11.00;9.80;;;;;;;;;;5033951;28;20507;-57
2021/08/28 07:17:52;;;;;;;10.40;9.40;;;;;;;;;;5034002;28;20864;-57
2021/08/28 07:20:20;;;;;;;10.17;9.27;;;;;;;;;;5033388;28;20794;-57
2021/08/28 07:22:47;;;;;;;9.03;7.93;;;;;;;;;;5033852;28;20449;-58
2021/08/28 07:25:14;;;;;;;9.67;8.87;;;;;;;;;;5033613;28;20536;-58
2021/08/28 07:27:42;;;;;;;8.23;7.37;;;;;;;;;;5033670;28;20476;-57
2021/08/28 07:30:09;;;;;;;7.67;6.97;;;;;;;;;;5034403;28;20860;-57
2021/08/28 07:32:37;;;;;;;8.13;7.33;;;;;;;;;;5033698;28;20502;-57
2021/08/28 07:35:06;;;;;;;6.80;6.17;;;;;;;;;;5033268;28;20449;-57
2021/08/28 07:37:34;;;;;;;7.43;6.73;;;;;;;;;;5033561;28;20456;-57
2021/08/28 07:40:02;;;;;;;8.20;7.50;;;;;;;;;;5033482;28;20445;-57
2021/08/28 07:42:29;;;;;;;9.23;8.40;;;;;;;;;;5033107;28;20449;-57
2021/08/28 07:44:56;;;;;;;8.67;7.83;;;;;;;;;;5033442;28;20859;-58
2021/08/28 07:47:23;;;;;;;10.10;9.10;;;;;;;;;;5033032;28;20519;-57
2021/08/28 07:49:51;;;;;;;8.47;7.67;;;;;;;;;;5033443;28;20507;-55
2021/08/28 07:52:19;;;;;;;6.87;6.20;;;;;;;;;;5033338;28;20523;-54
2021/08/28 07:54:46;;;;;;;9.27;8.47;;;;;;;;;;5033361;28;20448;-54
2021/08/28 07:57:14;;;;;;;8.20;7.10;;;;;;;;;;5033272;28;20526;-54
2021/08/28 07:59:41;;;;;;;6.83;5.83;;;;;;;;;;5032970;28;20994;-55
2021/08/28 08:02:09;;;;;;;7.87;7.10;;;;;;;;;;5033427;28;20445;-54
2021/08/28 08:04:36;;;;;;;6.70;6.10;;;;;;;;;;5032844;28;20865;-55
2021/08/28 08:07:04;;;;;;;7.57;6.87;;;;;;;;;;5032579;28;20476;-55
2021/08/28 08:09:32;;;;;;;8.23;7.53;;;;;;;;;;5033137;28;20480;-55
2021/08/28 08:11:59;;;;;;;5.90;5.27;;;;;;;;;;5033124;28;20452;-54
2021/08/28 08:14:28;;;;;;;9.10;8.30;;;;;;;;;;5033185;28;20453;-54
2021/08/28 08:16:55;;;;;;;9.50;8.67;;;;;;;;;;5032724;28;20469;-53
2021/08/28 08:19:22;;;;;;;6.70;6.10;;;;;;;;;;5033636;28;20445;-54
2021/08/28 08:21:49;;;;;;;7.30;6.70;;;;;;;;;;5033445;28;20449;-56
2021/08/28 08:24:17;;;;;;;9.10;8.20;;;;;;;;;;5032860;28;20507;-56
2021/08/28 08:26:45;;;;;;;9.17;8.27;;;;;;;;;;5033145;28;20480;-55
2021/08/28 08:29:12;;;;;;;9.17;8.27;;;;;;;;;;5032912;28;20473;-55
2021/08/28 08:31:40;;;;;;;8.30;7.50;;;;;;;;;;5032689;28;20498;-55
2021/08/28 08:34:07;;;;;;;9.80;8.80;;;;;;;;;;5032450;28;20445;-55
2021/08/28 08:36:34;;;;;;;8.80;8.00;;;;;;;;;;5032836;28;20473;-54
2021/08/28 08:39:01;;;;;;;8.50;7.70;;;;;;;;;;5032603;28;20445;-55
2021/08/28 08:41:31;;;;;;;7.33;6.63;;;;;;;;;;5032760;28;20444;-55
2021/08/28 08:44:00;;;;;;;9.93;9.03;;;;;;;;;;5032766;28;20845;-55
2021/08/28 08:46:29;;;;;;;10.33;9.33;;;;;;;;;;5032589;28;20903;-55
2021/08/28 08:48:56;;;;;;;10.87;9.67;;;;;;;;;;5032163;28;20480;-55
2021/08/28 08:51:24;;;;;;;11.20;9.23;;;;;;;;;;5032360;28;20940;-56
2021/08/28 08:53:51;;;;;;;8.70;7.80;;;;;;;;;;5033849;28;20940;-55
2021/08/28 08:56:19;;;;;;;8.17;7.03;;;;;;;;;;5035949;28;20468;-55
2021/08/28 08:58:46;;;;;;;7.30;6.70;;;;;;;;;;5036372;28;20472;-54
2021/08/28 09:01:15;;;;;;;8.80;8.00;;;;;;;;;;5035982;28;20453;-55
2021/08/28 09:03:42;;;;;;;9.60;7.53;;;;;;;;;;5035914;28;20932;-57
2021/08/28 09:06:10;;;;;;;9.33;8.40;;;;;;;;;;5036051;28;20480;-56
2021/08/28 09:08:37;;;;;;;8.60;7.77;;;;;;;;;;5035933;28;20526;-55
2021/08/28 09:11:04;;;;;;;9.20;7.90;;;;;;;;;;5036205;28;20449;-56
2021/08/28 09:13:31;;;;;;;7.43;6.73;;;;;;;;;;5035819;28;20498;-56
2021/08/28 09:16:02;;;;;;;7.23;6.63;;;;;;;;;;5036140;28;20515;-56
2021/08/28 09:18:31;;;;;;;6.70;6.07;;;;;;;;;;5036045;28;20484;-56
2021/08/28 09:20:59;;;;;;;7.73;7.00;;;;;;;;;;5035553;28;20507;-55
2021/08/28 09:23:26;;;;;;;7.37;6.67;;;;;;;;;;5035703;28;20445;-56
2021/08/28 09:25:54;;;;;;;7.60;6.03;;;;;;;;;;5035807;28;20473;-56
2021/08/28 09:28:33;;;;;;;8.00;7.20;;;;;;;;;;5035634;28;20512;-55
2021/08/28 09:31:02;;;;;;;6.67;6.07;;;;;;;;;;5035632;28;20487;-56
2021/08/28 09:33:35;;;;;;;6.80;6.20;;;;;;;;;;5035526;28;20491;-56
2021/08/28 09:36:03;;;;;;;8.30;7.50;;;;;;;;;;5035618;28;20556;-56
2021/08/28 09:38:38;;;;;;;7.77;7.00;;;;;;;;;;5035247;28;20975;-56
2021/08/28 09:41:05;;;;;;;8.80;7.90;;;;;;;;;;5035609;28;20429;-56
2021/08/28 09:43:32;;;;;;;7.53;6.83;;;;;;;;;;5035720;28;20514;-56
2021/08/28 09:46:08;;;;;;;7.80;7.20;;;;;;;;;;5035431;28;20472;-56
2021/08/28 09:48:39;;;;;;;8.97;7.50;;;;;;;;;;5035531;28;20538;-55
2021/08/28 09:51:10;;;;;;;8.03;7.23;;;;;;;;;;5035381;28;20803;-56
2021/08/28 09:53:39;;;;;;;7.10;6.50;;;;;;;;;;5035283;28;20445;-56
2021/08/28 09:56:08;;;;;;;10.40;6.80;;;;;;;;;;5034975;28;20527;-55
2021/08/28 09:58:35;;;;;;;5.23;4.73;;;;;;;;;;5034910;28;20433;-56
2021/08/28 10:01:03;;;;;;;4.57;4.17;;;;;;;;;;5034945;28;20872;-56
2021/08/28 10:03:31;;;;;;;4.00;3.70;;;;;;;;;;5035061;28;20502;-56
2021/08/28 10:06:00;;;;;;;4.50;4.20;;;;;;;;;;5034839;28;20495;-56
2021/08/28 10:08:28;;;;;;;4.57;4.17;;;;;;;;;;5034943;28;20879;-57
2021/08/28 10:10:55;;;;;;;5.70;5.20;;;;;;;;;;5035143;28;20543;-57
2021/08/28 10:13:23;;;;;;;5.63;5.23;;;;;;;;;;5034790;28;20939;-56
2021/08/28 10:15:51;;;;;;;5.23;4.73;;;;;;;;;;5035197;28;20461;-55
2021/08/28 10:18:19;;;;;;;5.83;5.33;;;;;;;;;;5034727;28;20510;-55
2021/08/28 10:20:47;;;;;;;6.37;5.83;;;;;;;;;;5034388;28;20449;-55
2021/08/28 10:23:18;;;;;;;5.10;4.63;;;;;;;;;;5034797;28;20449;-55
2021/08/28 10:25:47;;;;;;;5.07;4.67;;;;;;;;;;5034715;28;20473;-57
2021/08/28 10:28:15;;;;;;;5.23;4.83;;;;;;;;;;5035100;28;20979;-56
2021/08/28 10:30:43;;;;;;;5.90;5.23;;;;;;;;;;5034782;28;20449;-55
2021/08/28 10:33:10;;;;;;;6.33;5.77;;;;;;;;;;5035118;28;20454;-55
2021/08/28 10:35:37;;;;;;;5.80;5.30;;;;;;;;;;5034780;28;20468;-57
2021/08/28 10:38:04;;;;;;;6.93;6.33;;;;;;;;;;5034436;28;20457;-56
2021/08/28 10:40:34;;;;;;;6.23;5.73;;;;;;;;;;5034261;28;20445;-57
2021/08/28 10:43:03;;;;;;;6.23;5.63;;;;;;;;;;5034502;28;20487;-57
2021/08/28 10:45:31;;;;;;;7.33;6.63;;;;;;;;;;5034386;28;20452;-57
2021/08/28 10:47:59;;;;;;;6.90;6.30;;;;;;;;;;5034214;28;20453;-57
2021/08/28 10:50:27;;;;;;;7.13;6.53;;;;;;;;;;5034311;28;20480;-57
2021/08/28 10:52:54;;;;;;;7.33;6.60;;;;;;;;;;5034165;28;20869;-56
2021/08/28 10:55:21;;;;;;;7.13;6.57;;;;;;;;;;5034320;28;21009;-57
2021/08/28 10:58:10;;;;;;;8.70;8.00;;;;;;;;;;5034188;28;20449;-56
2021/08/28 11:00:42;;;;;;;9.00;8.20;;;;;;;;;;5034427;28;20418;-56
2021/08/28 11:03:23;;;;;;;8.43;7.70;;;;;;;;;;5034341;28;20468;-56
2021/08/28 11:06:05;;;;;;;7.80;7.13;;;;;;;;;;5034112;28;20480;-57
2021/08/28 11:08:46;;;;;;;8.17;7.37;;;;;;;;;;5033904;28;20449;-56
2021/08/28 11:11:18;;;;;;;7.37;6.77;;;;;;;;;;5034316;28;20495;-56
2021/08/28 11:13:54;;;;;;;7.80;7.10;;;;;;;;;;5039174;28;20433;-56
2021/08/28 11:16:36;;;;;;;9.57;8.67;;;;;;;;;;5049244;28;20489;-56
2021/08/28 11:19:05;;;;;;;7.90;7.20;;;;;;;;;;5048468;28;20437;-56
2021/08/28 11:21:42;;;;;;;7.87;7.27;;;;;;;;;;5044780;28;20449;-56
2021/08/28 11:24:11;;;;;;;7.90;7.20;;;;;;;;;;5049878;28;20479;-56
2021/08/28 11:26:38;;;;;;;9.17;8.13;;;;;;;;;;5038855;28;20468;-56
2021/08/28 11:29:18;;;;;;;8.80;8.10;;;;;;;;;;5034139;28;20484;-56
2021/08/28 11:31:47;;;;;;;10.00;9.17;;;;;;;;;;5034473;28;20867;-54
2021/08/28 11:34:15;;;;;;;9.63;8.73;;;;;;;;;;5033789;28;20540;-56
2021/08/28 11:36:42;;;;;;;9.43;8.53;;;;;;;;;;5033556;28;20968;-56
2021/08/28 11:39:22;;;;;;;10.60;9.50;;;;;;;;;;5033351;28;20503;-55
2021/08/28 11:41:50;;;;;;;10.23;9.33;;;;;;;;;;5033502;28;20533;-55
2021/08/28 11:44:17;;;;;;;10.40;9.40;;;;;;;;;;5033551;28;20482;-56
2021/08/28 11:46:47;;;;;;;11.23;10.33;;;;;;;;;;5033669;28;20510;-56
2021/08/28 11:49:16;;;;;;;9.90;9.00;;;;;;;;;;5034154;28;20464;-56
2021/08/28 11:51:43;;;;;;;8.90;8.10;;;;;;;;;;5033660;28;20491;-54
2021/08/28 11:54:12;;;;;;;8.83;8.10;;;;;;;;;;5033365;28;20499;-56
2021/08/28 11:56:39;;;;;;;8.33;7.40;;;;;;;;;;5033069;28;20969;-56
2021/08/28 11:59:08;;;;;;;8.30;7.47;;;;;;;;;;5034083;28;20440;-56
2021/08/28 12:01:37;;;;;;;8.70;8.00;;;;;;;;;;5033486;28;20451;-57
2021/08/28 12:04:06;;;;;;;7.07;6.40;;;;;;;;;;5033285;28;20453;-55
2021/08/28 12:06:35;;;;;;;9.03;8.13;;;;;;;;;;5032948;28;20821;-57
2021/08/28 12:09:03;;;;;;;9.40;8.50;;;;;;;;;;5032857;28;20560;-57
2021/08/28 12:11:31;;;;;;;9.53;8.63;;;;;;;;;;5033163;28;20458;-57
2021/08/28 12:13:59;;;;;;;10.50;9.60;;;;;;;;;;5032774;28;20942;-56
2021/08/28 12:16:28;;;;;;;10.73;9.73;;;;;;;;;;5033850;28;20515;-56
2021/08/28 12:19:13;;;;;;;9.63;8.73;;;;;;;;;;5033295;28;20968;-58
2021/08/28 12:21:42;;;;;;;9.60;8.70;;;;;;;;;;5033273;28;20444;-58
2021/08/28 12:24:17;;;;;;;10.60;9.60;;;;;;;;;;5033127;28;20519;-55
2021/08/28 12:26:45;;;;;;;12.40;11.13;;;;;;;;;;5033000;28;20518;-55
2021/08/28 12:29:13;;;;;;;11.40;10.40;;;;;;;;;;5034478;28;20472;-55
2021/08/28 12:31:40;;;;;;;12.83;10.57;;;;;;;;;;5036890;28;20460;-55
2021/08/28 12:34:19;;;;;;;11.40;10.23;;;;;;;;;;5036522;28;21045;-56
2021/08/28 12:36:48;;;;;;;11.50;10.40;;;;;;;;;;5036567;28;20556;-55
2021/08/28 12:39:16;;;;;;;11.93;10.93;;;;;;;;;;5036615;28;20515;-56
2021/08/28 12:41:44;;;;;;;13.40;12.20;;;;;;;;;;5038066;28;20506;-56
2021/08/28 12:44:11;;;;;;;13.00;11.90;;;;;;;;;;5036433;28;20499;-55
2021/08/28 12:46:39;;;;;;;10.50;9.53;;;;;;;;;;5036251;28;20514;-56
2021/08/28 12:49:07;;;;;;;11.43;10.30;;;;;;;;;;5036637;28;20527;-56
2021/08/28 12:51:35;;;;;;;12.07;10.97;;;;;;;;;;5036619;28;20860;-56
2021/08/28 12:54:04;;;;;;;13.50;12.30;;;;;;;;;;5036610;28;20445;-57
2021/08/28 12:56:31;;;;;;;12.57;11.37;;;;;;;;;;5037203;28;20472;-56
2021/08/28 12:58:59;;;;;;;12.97;11.73;;;;;;;;;;5036772;28;20448;-56
2021/08/28 13:01:26;;;;;;;15.00;13.50;;;;;;;;;;5036526;28;20445;-57
2021/08/28 13:03:54;;;;;;;13.40;12.23;;;;;;;;;;5036480;28;20809;-55
2021/08/28 13:06:22;;;;;;;13.53;12.30;;;;;;;;;;5060338;22;20582;-55
2021/08/28 13:08:50;;;;;;;13.10;11.90;;;;;;;;;;5036234;28;20440;-55
2021/08/28 13:11:19;;;;;;;12.03;10.83;;;;;;;;;;5035876;28;20944;-55
2021/08/28 13:13:53;;;;;;;14.30;12.87;;;;;;;;;;5036037;28;20483;-54
2021/08/28 13:16:20;;;;;;;12.93;11.53;;;;;;;;;;5035667;28;20980;-54
2021/08/28 13:19:06;;;;;;;13.30;12.00;;;;;;;;;;5035792;28;20453;-55
2021/08/28 13:21:37;;;;;;;15.60;11.93;;;;;;;;;;5035839;28;20437;-56
2021/08/28 13:24:11;;;;;;;15.37;13.87;;;;;;;;;;5035661;28;20921;-56
2021/08/28 13:26:53;;;;;;;12.93;11.63;;;;;;;;;;5035775;28;20494;-55
2021/08/28 13:29:29;;;;;;;15.00;13.20;;;;;;;;;;5033404;28;20893;-56
2021/08/28 13:32:07;;;;;;;16.63;14.90;;;;;;;;;;5035668;28;20453;-55
2021/08/28 13:34:41;;;;;;;14.63;13.20;;;;;;;;;;5035379;28;20444;-55
2021/08/28 13:37:10;;;;;;;12.23;11.03;;;;;;;;;;5035176;28;21046;-56
2021/08/28 13:39:37;;;;;;;13.10;11.80;;;;;;;;;;5035244;28;20546;-55
2021/08/28 13:42:05;;;;;;;14.43;13.00;;;;;;;;;;5035547;28;20445;-56
2021/08/28 13:44:34;;;;;;;16.03;14.37;;;;;;;;;;5035272;28;20513;-55
2021/08/28 13:47:02;;;;;;;14.60;13.00;;;;;;;;;;5035430;28;20500;-55
2021/08/28 13:49:29;;;;;;;12.80;11.60;;;;;;;;;;5035066;28;20550;-55
2021/08/28 13:51:56;;;;;;;11.57;10.47;;;;;;;;;;5035024;28;20861;-55
2021/08/28 13:54:24;;;;;;;11.50;10.40;;;;;;;;;;5034938;28;20507;-55
2021/08/28 13:56:51;;;;;;;10.47;9.57;;;;;;;;;;5035142;28;20464;-56
2021/08/28 13:59:18;;;;;;;11.57;10.37;;;;;;;;;;5035042;28;20524;-56
2021/08/28 14:01:47;;;;;;;10.87;9.80;;;;;;;;;;5034876;28;20559;-55
2021/08/28 14:04:14;;;;;;;10.53;9.43;;;;;;;;;;5035476;28;20499;-56
2021/08/28 14:06:41;;;;;;;13.37;11.83;;;;;;;;;;5035461;28;20527;-56
2021/08/28 14:09:08;;;;;;;25.83;11.93;;;;;;;;;;5035235;28;20867;-57
2021/08/28 14:11:35;;;;;;;5.67;4.47;;;;;;;;;;5034668;28;20485;-57
2021/08/28 14:14:03;;;;;;;4.97;3.20;;;;;;;;;;5035131;28;20441;-54
2021/08/28 14:16:30;;;;;;;4.40;2.90;;;;;;;;;;5034930;28;20522;-55
2021/08/28 14:18:58;;;;;;;3.43;3.13;;;;;;;;;;5035116;28;20440;-54
2021/08/28 14:21:27;;;;;;;3.53;3.23;;;;;;;;;;5035000;28;20511;-55
2021/08/28 14:23:55;;;;;;;3.87;3.47;;;;;;;;;;5035189;28;20456;-54
2021/08/28 14:26:22;;;;;;;4.53;4.23;;;;;;;;;;5034449;28;20519;-54
2021/08/28 14:28:49;;;;;;;4.20;3.80;;;;;;;;;;5034582;28;20449;-54
2021/08/28 14:31:16;;;;;;;4.13;3.80;;;;;;;;;;5034630;28;20477;-54
2021/08/28 14:33:43;;;;;;;4.50;4.20;;;;;;;;;;5034404;28;20932;-56
2021/08/28 14:36:12;;;;;;;4.60;4.30;;;;;;;;;;5034802;28;20515;-55
2021/08/28 14:38:39;;;;;;;4.67;4.27;;;;;;;;;;5034680;28;20507;-56
2021/08/28 14:41:07;;;;;;;5.47;4.97;;;;;;;;;;5034452;28;20502;-56